Time;durP1;ratioP1;P1;durP2;ratioP2;P2;SDS_P1;SDS_P2;PMS_P1;PMS_P2;Temp;Humidity;BMP_temperature;BMP_pressure;BME280_temperature;BME280_humidity;BME280_pressure;Samples;Min_cycle;Max_cycle;Signal;HPM_P1;HPM_P2
2022/04/08 00:00:58;;;;;;;4.70;1.13;;;9.00;97.00;;;;;;5024612;28;20034;-67
2022/04/08 00:03:28;;;;;;;5.18;0.95;;;9.00;97.00;;;;;;5031189;28;20033;-67
2022/04/08 00:05:54;;;;;;;6.90;1.33;;;9.00;96.90;;;;;;5020903;28;20040;-67
2022/04/08 00:08:22;;;;;;;8.63;1.20;;;8.90;97.00;;;;;;5012322;28;20046;-67
2022/04/08 00:10:48;;;;;;;6.35;1.27;;;9.00;97.00;;;;;;5020443;28;20484;-67
2022/04/08 00:13:14;;;;;;;1.27;0.65;;;8.90;97.00;;;;;;5022076;28;20029;-67
2022/04/08 00:15:40;;;;;;;4.35;1.00;;;8.80;97.10;;;;;;5030606;28;20109;-67
2022/04/08 00:18:07;;;;;;;6.38;0.90;;;8.80;97.20;;;;;;5013584;28;20038;-67
2022/04/08 00:20:34;;;;;;;6.38;0.80;;;8.80;97.30;;;;;;5017209;28;20034;-67
2022/04/08 00:23:01;;;;;;;3.72;1.05;;;8.80;97.00;;;;;;5020842;28;20048;-67
2022/04/08 00:25:27;;;;;;;0.95;0.70;;;8.70;97.20;;;;;;5030166;28;20033;-67
2022/04/08 00:27:56;;;;;;;1.23;0.57;;;8.70;97.30;;;;;;5031902;28;20044;-67
2022/04/08 00:30:25;;;;;;;1.65;0.82;;;8.70;97.30;;;;;;5015567;28;20044;-67
2022/04/08 00:32:51;;;;;;;5.75;1.92;;;8.60;97.40;;;;;;5011459;28;20042;-67
2022/04/08 00:35:20;;;;;;;14.43;1.90;;;8.60;96.90;;;;;;5016912;28;20051;-67
2022/04/08 00:37:50;;;;;;;5.28;1.13;;;8.60;97.20;;;;;;5031405;28;20553;-67
2022/04/08 00:40:16;;;;;;;6.47;1.42;;;8.50;96.80;;;;;;5014767;28;20044;-67
2022/04/08 00:42:43;;;;;;;8.52;1.85;;;8.50;96.80;;;;;;5030857;28;20044;-67
2022/04/08 00:45:09;;;;;;;11.77;1.50;;;8.40;96.60;;;;;;5030917;28;20128;-67
2022/04/08 00:47:37;;;;;;;8.20;1.27;;;8.50;96.90;;;;;;5017962;28;20128;-67
2022/04/08 00:50:06;;;;;;;10.18;1.85;;;8.40;96.90;;;;;;5031141;28;20033;-67
2022/04/08 00:52:33;;;;;;;3.10;0.98;;;8.40;96.90;;;;;;5021465;28;20044;-67
2022/04/08 00:55:10;;;;;;;9.23;2.00;;;8.40;97.00;;;;;;5014878;28;20120;-67
2022/04/08 00:57:36;;;;;;;15.60;1.77;;;8.40;96.90;;;;;;5027049;28;20033;-67
2022/04/08 01:00:09;;;;;;;7.45;1.27;;;8.40;96.70;;;;;;5030317;28;20088;-67
2022/04/08 01:02:36;;;;;;;17.90;1.92;;;8.40;96.80;;;;;;5023670;28;20057;-67
2022/04/08 01:05:03;;;;;;;9.90;1.90;;;8.30;96.90;;;;;;5011077;28;20478;-67
2022/04/08 01:07:30;;;;;;;3.97;1.10;;;8.30;96.90;;;;;;5010955;28;20061;-67
2022/04/08 01:09:56;;;;;;;9.48;2.38;;;8.30;97.00;;;;;;5016237;28;20037;-67
2022/04/08 01:12:21;;;;;;;11.43;1.42;;;8.30;97.00;;;;;;5025500;28;20060;-67
2022/04/08 01:14:47;;;;;;;12.07;2.80;;;8.30;97.00;;;;;;5026411;28;20033;-67
2022/04/08 01:17:13;;;;;;;11.93;1.52;;;8.30;97.00;;;;;;5029522;28;20033;-67
2022/04/08 01:19:38;;;;;;;5.88;1.60;;;8.30;97.10;;;;;;5030822;28;20021;-67
2022/04/08 01:22:04;;;;;;;3.17;1.33;;;8.30;97.10;;;;;;5015115;28;20442;-67
2022/04/08 01:24:36;;;;;;;12.85;1.92;;;8.30;97.00;;;;;;5011243;28;20084;-67
2022/04/08 01:27:02;;;;;;;1.80;0.80;;;8.30;97.00;;;;;;5014302;28;20045;-68
2022/04/08 01:29:28;;;;;;;2.05;1.30;;;8.30;97.00;;;;;;5030629;28;20029;-68
2022/04/08 01:31:54;;;;;;;7.63;2.10;;;8.20;97.00;;;;;;5017706;28;20444;-68
2022/04/08 01:34:20;;;;;;;2.22;1.08;;;8.20;97.00;;;;;;5030906;28;20033;-67
2022/04/08 01:36:45;;;;;;;9.13;1.00;;;8.10;97.10;;;;;;5015363;28;20065;-67
2022/04/08 01:39:11;;;;;;;1.00;0.65;;;8.10;97.20;;;;;;5015080;28;20040;-67
2022/04/08 01:41:37;;;;;;;3.85;0.80;;;8.10;97.20;;;;;;5014420;28;20026;-68
2022/04/08 01:44:05;;;;;;;2.33;0.63;;;8.10;97.30;;;;;;5015664;28;20057;-67
2022/04/08 01:46:31;;;;;;;0.75;0.60;;;8.10;97.30;;;;;;5019632;28;20135;-67
2022/04/08 01:48:57;;;;;;;3.45;1.23;;;8.00;97.30;;;;;;5022325;28;20048;-68
2022/04/08 01:51:23;;;;;;;5.75;1.42;;;8.00;97.30;;;;;;5032609;28;20048;-67
2022/04/08 01:53:49;;;;;;;0.77;0.57;;;8.00;97.30;;;;;;5014906;28;20033;-67
2022/04/08 01:56:15;;;;;;;5.70;0.98;;;8.00;97.60;;;;;;5016306;28;20041;-67
2022/04/08 01:58:41;;;;;;;3.40;0.93;;;7.90;97.40;;;;;;5025077;28;20030;-68
2022/04/08 02:01:07;;;;;;;5.28;1.33;;;7.90;97.40;;;;;;5014361;28;20030;-68
2022/04/08 02:03:33;;;;;;;3.30;1.48;;;7.90;97.50;;;;;;5013630;28;20037;-68
2022/04/08 02:06:02;;;;;;;2.00;1.00;;;7.80;97.50;;;;;;5014312;28;20022;-68
2022/04/08 02:08:28;;;;;;;6.40;1.60;;;7.80;97.60;;;;;;5014387;28;20140;-67
2022/04/08 02:10:53;;;;;;;8.68;1.63;;;7.80;97.60;;;;;;5030024;28;20152;-68
2022/04/08 02:13:20;;;;;;;2.15;0.70;;;7.80;97.90;;;;;;5024882;28;20044;-68
2022/04/08 02:15:46;;;;;;;3.53;1.05;;;7.80;97.70;;;;;;5017028;28;20030;-67
2022/04/08 02:18:12;;;;;;;9.25;1.73;;;7.80;97.70;;;;;;5033687;28;20045;-67
2022/04/08 02:20:42;;;;;;;12.35;1.42;;;7.70;97.70;;;;;;5023157;28;20037;-67
2022/04/08 02:23:08;;;;;;;8.70;1.00;;;7.80;97.80;;;;;;5013890;28;20465;-67
2022/04/08 02:25:33;;;;;;;5.57;1.27;;;7.70;97.80;;;;;;5026551;28;20041;-69
2022/04/08 02:28:01;;;;;;;3.50;1.08;;;7.70;97.80;;;;;;5024566;28;20034;-67
2022/04/08 02:30:27;;;;;;;8.75;1.30;;;7.70;97.90;;;;;;5015684;28;20026;-67
2022/04/08 02:32:53;;;;;;;3.13;1.52;;;7.60;97.90;;;;;;5013539;28;20030;-67
2022/04/08 02:35:20;;;;;;;8.18;1.90;;;7.60;97.90;;;;;;5013732;28;20030;-67
2022/04/08 02:37:46;;;;;;;3.08;1.13;;;7.60;97.90;;;;;;5014166;28;20038;-67
2022/04/08 02:40:12;;;;;;;3.78;1.83;;;7.60;98.10;;;;;;5026436;28;20033;-69
2022/04/08 02:42:38;;;;;;;2.13;0.90;;;7.60;97.90;;;;;;5013821;28;20042;-67
2022/04/08 02:45:04;;;;;;;6.28;1.98;;;7.60;97.90;;;;;;5012855;28;20100;-67
2022/04/08 02:47:30;;;;;;;4.35;0.90;;;7.50;97.90;;;;;;5013226;28;20136;-67
2022/04/08 02:49:55;;;;;;;5.72;1.00;;;7.60;97.90;;;;;;5029551;28;20033;-67
2022/04/08 02:52:21;;;;;;;7.22;1.35;;;7.50;97.90;;;;;;5013138;28;20034;-67
2022/04/08 02:54:47;;;;;;;11.93;1.67;;;7.60;97.90;;;;;;5013582;28;20455;-67
2022/04/08 02:57:12;;;;;;;9.32;2.20;;;7.50;97.90;;;;;;5013409;28;20596;-67
2022/04/08 02:59:38;;;;;;;8.18;1.48;;;7.40;97.90;;;;;;5012297;28;20084;-67
2022/04/08 03:02:04;;;;;;;7.25;1.55;;;7.40;98.00;;;;;;5024308;28;20080;-67
2022/04/08 03:04:29;;;;;;;7.65;1.55;;;7.40;98.10;;;;;;5015078;28;20026;-67
2022/04/08 03:06:55;;;;;;;8.88;1.98;;;7.40;98.20;;;;;;5023934;28;20037;-67
2022/04/08 03:09:21;;;;;;;8.77;1.92;;;7.40;98.20;;;;;;5032116;28;20084;-67
2022/04/08 03:11:47;;;;;;;5.90;1.15;;;7.30;98.20;;;;;;5022188;28;20025;-67
2022/04/08 03:14:13;;;;;;;4.82;1.30;;;7.30;98.40;;;;;;5012193;28;20041;-67
2022/04/08 03:16:39;;;;;;;1.75;0.85;;;7.30;98.20;;;;;;5013404;28;20561;-67
2022/04/08 03:19:05;;;;;;;8.75;1.55;;;7.20;98.20;;;;;;5019085;28;20127;-67
2022/04/08 03:21:30;;;;;;;7.22;1.27;;;7.20;97.20;;;;;;5030758;28;20026;-67
2022/04/08 03:23:57;;;;;;;5.75;1.30;;;7.20;97.70;;;;;;5031218;28;20044;-67
2022/04/08 03:26:24;;;;;;;4.07;0.95;;;7.20;97.20;;;;;;5031529;28;20028;-65
2022/04/08 03:28:50;;;;;;;7.30;0.85;;;7.20;96.90;;;;;;5030880;28;20037;-66
2022/04/08 03:31:15;;;;;;;1.83;0.45;;;7.30;96.90;;;;;;5031204;28;20044;-67
2022/04/08 03:33:41;;;;;;;2.75;1.10;;;7.30;97.20;;;;;;5031265;28;20083;-67
2022/04/08 03:36:08;;;;;;;11.52;1.50;;;7.40;97.20;;;;;;5030963;28;20033;-67
2022/04/08 03:38:34;;;;;;;2.55;0.70;;;7.40;97.20;;;;;;5031258;28;20033;-67
2022/04/08 03:41:00;;;;;;;6.38;1.48;;;7.40;97.20;;;;;;5028558;28;20022;-66
2022/04/08 03:43:27;;;;;;;10.23;1.35;;;7.40;97.20;;;;;;5031094;28;20025;-67
2022/04/08 03:45:53;;;;;;;7.55;1.08;;;7.40;97.20;;;;;;5031417;28;20033;-67
2022/04/08 03:48:18;;;;;;;2.78;1.10;;;7.40;97.20;;;;;;5030547;28;20451;-67
2022/04/08 03:50:44;;;;;;;5.88;1.45;;;7.40;97.20;;;;;;5031197;28;20440;-66
2022/04/08 03:53:12;;;;;;;0.75;0.60;;;7.30;97.20;;;;;;5030881;28;20071;-67
2022/04/08 03:55:39;;;;;;;6.45;1.25;;;7.30;97.40;;;;;;5030121;28;20033;-67
2022/04/08 03:58:04;;;;;;;4.97;1.60;;;7.30;97.40;;;;;;5030929;28;20496;-67
2022/04/08 04:00:30;;;;;;;9.85;1.60;;;7.30;97.40;;;;;;5025602;28;20050;-67
2022/04/08 04:02:57;;;;;;;7.72;1.83;;;7.10;97.30;;;;;;5012345;28;20130;-67
2022/04/08 04:05:23;;;;;;;3.90;1.00;;;7.10;97.40;;;;;;5030004;28;20116;-66
2022/04/08 04:07:48;;;;;;;6.53;1.17;;;7.10;97.50;;;;;;5021600;28;20087;-69
2022/04/08 04:10:14;;;;;;;2.25;0.60;;;7.10;97.40;;;;;;5028337;28;20817;-67
2022/04/08 04:12:42;;;;;;;0.45;0.43;;;7.10;97.40;;;;;;5021695;28;20033;-66
2022/04/08 04:15:09;;;;;;;2.78;1.35;;;7.10;97.30;;;;;;5029745;28;20029;-67
2022/04/08 04:17:35;;;;;;;4.78;1.42;;;7.10;97.20;;;;;;5029429;28;20057;-67
2022/04/08 04:20:01;;;;;;;1.55;1.00;;;7.10;97.30;;;;;;5030577;28;20064;-67
2022/04/08 04:22:27;;;;;;;23.88;1.67;;;7.10;97.30;;;;;;5030556;28;20060;-67
2022/04/08 04:24:52;;;;;;;1.80;0.80;;;7.10;97.30;;;;;;5030179;28;20108;-67
2022/04/08 04:27:18;;;;;;;7.75;1.73;;;7.10;97.30;;;;;;5030527;28;20037;-66
2022/04/08 04:29:44;;;;;;;4.07;1.55;;;7.10;97.30;;;;;;5030439;28;20048;-65
2022/04/08 04:32:09;;;;;;;4.53;1.20;;;7.00;97.30;;;;;;5030628;28;20466;-66
2022/04/08 04:34:36;;;;;;;2.75;1.35;;;7.00;97.40;;;;;;5030378;28;20021;-66
2022/04/08 04:37:04;;;;;;;1.75;0.85;;;6.90;97.40;;;;;;5019611;28;20041;-65
2022/04/08 04:39:29;;;;;;;7.38;1.42;;;6.90;97.60;;;;;;5024174;28;20028;-65
2022/04/08 04:41:55;;;;;;;3.80;1.85;;;6.90;97.70;;;;;;5029299;28;20432;-66
2022/04/08 04:44:21;;;;;;;4.78;1.50;;;6.90;97.80;;;;;;5031417;28;20060;-67
2022/04/08 04:46:46;;;;;;;6.32;1.48;;;6.80;97.80;;;;;;5030799;28;20473;-66
2022/04/08 04:49:12;;;;;;;2.10;1.05;;;6.80;97.90;;;;;;5031268;28;20033;-66
2022/04/08 04:51:38;;;;;;;3.40;1.27;;;6.70;97.90;;;;;;5014440;28;20026;-65
2022/04/08 04:54:03;;;;;;;1.20;0.80;;;6.80;98.00;;;;;;5021376;28;20048;-65
2022/04/08 04:56:29;;;;;;;2.53;1.48;;;6.70;98.10;;;;;;5022080;28;20075;-65
2022/04/08 04:58:55;;;;;;;2.38;1.10;;;6.60;98.00;;;;;;5024952;28;20053;-65
2022/04/08 05:01:20;;;;;;;2.50;0.82;;;6.60;98.10;;;;;;5027240;28;20483;-65
2022/04/08 05:03:46;;;;;;;2.15;0.80;;;6.60;98.20;;;;;;5027549;28;20057;-65
2022/04/08 05:06:12;;;;;;;1.75;1.08;;;6.60;98.30;;;;;;5026792;28;20397;-65
2022/04/08 05:08:37;;;;;;;5.22;1.25;;;6.60;98.30;;;;;;5026922;28;20053;-65
2022/04/08 05:11:03;;;;;;;2.05;0.95;;;6.40;98.30;;;;;;5030225;28;20053;-66
2022/04/08 05:13:29;;;;;;;3.20;1.08;;;6.40;98.50;;;;;;5037326;28;20060;-68
2022/04/08 05:15:54;;;;;;;5.25;1.80;;;6.40;98.60;;;;;;5030079;28;20056;-66
2022/04/08 05:18:20;;;;;;;4.10;1.35;;;6.30;98.70;;;;;;5035234;28;20033;-66
2022/04/08 05:20:48;;;;;;;4.47;1.40;;;6.30;98.70;;;;;;5019242;28;20030;-66
2022/04/08 05:23:13;;;;;;;5.53;1.00;;;6.30;98.90;;;;;;5017546;28;20064;-66
2022/04/08 05:25:39;;;;;;;5.18;1.40;;;6.20;98.90;;;;;;5036307;28;20373;-66
2022/04/08 05:28:15;;;;;;;3.25;1.08;;;6.20;99.00;;;;;;5036422;28;20053;-66
2022/04/08 05:30:41;;;;;;;4.15;1.02;;;6.20;99.10;;;;;;5025983;28;20029;-66
2022/04/08 05:33:06;;;;;;;2.22;1.00;;;6.20;99.00;;;;;;5029638;28;20037;-67
2022/04/08 05:35:35;;;;;;;2.28;1.35;;;6.20;99.00;;;;;;5035173;28;20022;-67
2022/04/08 05:38:01;;;;;;;3.13;1.10;;;6.20;99.00;;;;;;5036431;28;20048;-67
2022/04/08 05:40:26;;;;;;;6.07;1.15;;;6.20;99.00;;;;;;5036334;28;20485;-67
2022/04/08 05:42:52;;;;;;;5.10;1.70;;;6.20;99.00;;;;;;5034799;28;20087;-67
2022/04/08 05:45:21;;;;;;;2.50;1.20;;;6.20;99.00;;;;;;5035987;28;20075;-67
2022/04/08 05:47:50;;;;;;;3.63;1.40;;;6.20;99.00;;;;;;5036575;28;20037;-66
2022/04/08 05:50:16;;;;;;;5.38;1.65;;;6.20;99.00;;;;;;5034891;28;20036;-67
2022/04/08 05:52:43;;;;;;;1.80;1.00;;;6.20;99.00;;;;;;5036285;28;20079;-65
2022/04/08 05:55:09;;;;;;;3.90;1.35;;;6.20;98.90;;;;;;5035898;28;20093;-66
2022/04/08 05:57:36;;;;;;;3.65;1.40;;;6.20;98.90;;;;;;5030648;28;20045;-66
2022/04/08 06:00:04;;;;;;;4.18;1.35;;;6.20;98.90;;;;;;5035716;28;20095;-66
2022/04/08 06:02:32;;;;;;;5.75;1.33;;;6.30;99.00;;;;;;5037429;28;20037;-67
2022/04/08 06:04:58;;;;;;;2.33;1.65;;;6.20;98.90;;;;;;5032643;28;20033;-66
2022/04/08 06:07:24;;;;;;;10.45;1.52;;;6.30;98.90;;;;;;5027377;28;20038;-66
2022/04/08 06:09:50;;;;;;;1.63;1.05;;;6.30;98.90;;;;;;5020397;28;20385;-67
2022/04/08 06:12:16;;;;;;;1.42;1.00;;;6.30;98.90;;;;;;5017423;28;20042;-66
2022/04/08 06:14:42;;;;;;;3.17;1.17;;;6.30;98.90;;;;;;5016095;28;20025;-66
2022/04/08 06:17:07;;;;;;;3.20;1.33;;;6.30;98.90;;;;;;5016556;28;20034;-66
2022/04/08 06:19:33;;;;;;;3.28;1.30;;;6.30;99.00;;;;;;5020627;28;20033;-66
2022/04/08 06:21:59;;;;;;;9.25;1.67;;;6.30;99.00;;;;;;5036146;28;20052;-66
2022/04/08 06:24:24;;;;;;;5.93;1.35;;;6.30;99.10;;;;;;5032799;28;20406;-66
2022/04/08 06:26:50;;;;;;;5.53;1.25;;;6.30;99.20;;;;;;5019979;28;20037;-66
2022/04/08 06:29:16;;;;;;;5.18;1.50;;;6.30;99.40;;;;;;5013767;28;20093;-67
2022/04/08 06:31:42;;;;;;;3.38;1.00;;;6.20;99.40;;;;;;5026660;28;20025;-67
2022/04/08 06:34:08;;;;;;;3.65;1.40;;;6.20;99.50;;;;;;5014188;28;20096;-66
2022/04/08 06:36:33;;;;;;;5.95;1.10;;;6.20;99.50;;;;;;5013615;28;20117;-66
2022/04/08 06:38:59;;;;;;;3.90;0.95;;;6.20;99.50;;;;;;5021998;28;20036;-67
2022/04/08 06:41:25;;;;;;;1.33;1.00;;;6.30;99.50;;;;;;5031638;28;20505;-67
2022/04/08 06:43:50;;;;;;;1.42;0.80;;;6.20;99.60;;;;;;5013963;28;20083;-67
2022/04/08 06:46:16;;;;;;;2.92;1.02;;;6.30;99.60;;;;;;5013196;28;20424;-68
2022/04/08 06:48:42;;;;;;;2.03;1.13;;;6.30;99.60;;;;;;5013866;28;20145;-67
2022/04/08 06:51:07;;;;;;;6.38;1.48;;;6.30;99.70;;;;;;5013459;28;20504;-67
2022/04/08 06:53:34;;;;;;;4.50;1.27;;;6.30;99.70;;;;;;5023305;28;20128;-67
2022/04/08 06:56:03;;;;;;;4.68;1.65;;;6.30;99.70;;;;;;5030793;28;20037;-67
2022/04/08 06:58:30;;;;;;;5.43;1.55;;;6.40;99.80;;;;;;5026824;28;20029;-66
2022/04/08 07:00:58;;;;;;;7.85;1.48;;;6.30;99.80;;;;;;5013485;28;20117;-67
2022/04/08 07:03:25;;;;;;;4.93;0.80;;;6.40;99.80;;;;;;5013305;28;20026;-67
2022/04/08 07:05:50;;;;;;;2.88;1.23;;;6.40;99.80;;;;;;5025880;28;20029;-67
2022/04/08 07:08:16;;;;;;;0.75;0.50;;;6.50;99.80;;;;;;5013359;28;20049;-67
2022/04/08 07:10:44;;;;;;;3.33;0.95;;;6.50;99.80;;;;;;5026639;28;20113;-67
2022/04/08 07:13:10;;;;;;;3.53;1.15;;;6.50;99.70;;;;;;5012891;28;20041;-67
2022/04/08 07:15:36;;;;;;;4.03;0.98;;;6.70;99.60;;;;;;5026245;28;20030;-67
2022/04/08 07:18:07;;;;;;;2.47;1.20;;;6.70;99.60;;;;;;5013121;28;20436;-67
2022/04/08 07:20:33;;;;;;;8.05;1.50;;;6.70;99.60;;;;;;5020963;28;20025;-67
2022/04/08 07:23:03;;;;;;;6.55;1.38;;;6.70;99.60;;;;;;5025837;28;20104;-67
2022/04/08 07:25:29;;;;;;;5.35;1.50;;;6.70;99.60;;;;;;5013369;28;20048;-68
2022/04/08 07:27:59;;;;;;;5.85;1.83;;;6.70;99.70;;;;;;5032246;28;20045;-67
2022/04/08 07:30:26;;;;;;;6.47;1.60;;;6.60;99.80;;;;;;5031794;28;20041;-67
2022/04/08 07:32:53;;;;;;;1.20;1.10;;;6.60;99.90;;;;;;5013565;28;20425;-67
2022/04/08 07:35:19;;;;;;;15.35;2.05;;;6.60;99.90;;;;;;5012203;28;20061;-67
2022/04/08 07:37:45;;;;;;;6.00;1.27;;;6.70;99.90;;;;;;5020053;28;20451;-67
2022/04/08 07:40:12;;;;;;;2.15;1.33;;;6.70;99.90;;;;;;5018092;28;20036;-67
2022/04/08 07:42:38;;;;;;;2.75;1.13;;;6.70;99.90;;;;;;5012202;28;20470;-67
2022/04/08 07:45:08;;;;;;;5.30;1.15;;;6.80;99.90;;;;;;5027331;28;20033;-67
2022/04/08 07:47:34;;;;;;;6.35;1.00;;;6.80;99.90;;;;;;5023494;28;20053;-67
2022/04/08 07:50:01;;;;;;;3.67;1.52;;;6.90;99.90;;;;;;5012389;28;21508;-67
2022/04/08 07:52:27;;;;;;;5.68;2.22;;;6.90;99.90;;;;;;5012495;28;20025;-67
2022/04/08 07:54:54;;;;;;;9.48;2.28;;;6.90;99.90;;;;;;5011739;28;20022;-67
2022/04/08 07:57:20;;;;;;;6.40;1.45;;;6.90;99.90;;;;;;5022754;28;20061;-67
2022/04/08 07:59:46;;;;;;;4.80;1.45;;;6.90;99.90;;;;;;5027519;28;20080;-68
2022/04/08 08:02:11;;;;;;;3.45;2.05;;;6.90;99.90;;;;;;5020641;28;20065;-69
2022/04/08 08:04:38;;;;;;;0.80;0.70;;;6.90;99.90;;;;;;5031072;28;20071;-69
2022/04/08 08:07:03;;;;;;;3.50;0.77;;;7.00;99.90;;;;;;5030448;28;20065;-69
2022/04/08 08:09:29;;;;;;;0.82;0.70;;;7.00;99.90;;;;;;5030089;28;20068;-69
2022/04/08 08:11:55;;;;;;;5.00;1.00;;;7.10;99.90;;;;;;5030752;28;20041;-69
2022/04/08 08:14:23;;;;;;;3.67;1.00;;;7.20;99.90;;;;;;5026495;28;20491;-69
2022/04/08 08:16:49;;;;;;;2.25;0.70;;;7.20;99.90;;;;;;5029907;28;20029;-68
2022/04/08 08:19:15;;;;;;;0.93;0.75;;;7.30;99.90;;;;;;5022896;28;20041;-68
2022/04/08 08:21:40;;;;;;;8.10;1.10;;;7.30;99.90;;;;;;5030630;28;20029;-68
2022/04/08 08:24:06;;;;;;;7.55;1.42;;;7.40;99.90;;;;;;5030893;28;20048;-68
2022/04/08 08:26:35;;;;;;;6.45;1.30;;;7.40;99.90;;;;;;5030438;28;20045;-68
2022/04/08 08:29:00;;;;;;;1.60;0.75;;;7.50;99.90;;;;;;5030139;28;20064;-68
2022/04/08 08:31:26;;;;;;;1.33;0.50;;;7.50;99.90;;;;;;5029769;28;20063;-68
2022/04/08 08:33:52;;;;;;;9.25;1.23;;;7.50;99.90;;;;;;5029888;28;20037;-68
2022/04/08 08:36:17;;;;;;;1.92;0.85;;;7.60;99.90;;;;;;5025504;28;20125;-68
2022/04/08 08:38:46;;;;;;;1.92;0.77;;;7.60;99.90;;;;;;5027401;28;20020;-68
2022/04/08 08:41:12;;;;;;;5.60;1.27;;;7.60;99.90;;;;;;5029416;28;20193;-68
2022/04/08 08:43:38;;;;;;;5.88;1.52;;;7.60;99.90;;;;;;5029366;28;20025;-70
2022/04/08 08:46:05;;;;;;;5.35;1.58;;;7.70;99.90;;;;;;5029693;28;20033;-70
2022/04/08 08:48:33;;;;;;;5.60;1.38;;;7.70;99.90;;;;;;5030348;28;20038;-69
2022/04/08 08:51:03;;;;;;;4.88;1.15;;;7.70;99.90;;;;;;5030283;28;20795;-68
2022/04/08 08:53:34;;;;;;;5.35;1.38;;;7.70;99.90;;;;;;5030631;28;20029;-68
2022/04/08 08:56:00;;;;;;;5.07;1.17;;;7.70;99.90;;;;;;5028674;28;20052;-69
2022/04/08 08:58:29;;;;;;;2.55;1.33;;;7.70;99.90;;;;;;5028779;28;20535;-69
2022/04/08 09:00:55;;;;;;;4.47;1.33;;;7.60;99.90;;;;;;5029623;28;20632;-68
2022/04/08 09:03:21;;;;;;;7.40;1.58;;;7.60;99.90;;;;;;5027688;28;20040;-68
2022/04/08 09:05:47;;;;;;;1.73;0.80;;;7.70;99.90;;;;;;5023932;28;20029;-68
2022/04/08 09:08:14;;;;;;;0.98;0.68;;;7.70;99.90;;;;;;5020433;28;20515;-68
2022/04/08 09:10:46;;;;;;;7.40;1.45;;;7.80;99.90;;;;;;5016706;28;20512;-68
2022/04/08 09:13:16;;;;;;;4.72;1.25;;;7.80;99.90;;;;;;5014093;28;20037;-68
2022/04/08 09:15:55;;;;;;;4.05;1.13;;;7.90;99.90;;;;;;5028249;28;20079;-68
2022/04/08 09:18:21;;;;;;;10.80;1.25;;;7.90;99.80;;;;;;5022114;28;20041;-68
2022/04/08 09:20:51;;;;;;;3.63;0.95;;;7.90;99.80;;;;;;5026312;28;20026;-66
2022/04/08 09:23:18;;;;;;;2.42;0.60;;;8.00;99.70;;;;;;5030902;28;20044;-67
2022/04/08 09:25:48;;;;;;;6.30;1.10;;;8.00;99.40;;;;;;5027537;28;20116;-68
2022/04/08 09:28:17;;;;;;;0.70;0.47;;;8.00;99.20;;;;;;5030324;28;20049;-68
2022/04/08 09:30:53;;;;;;;1.73;0.60;;;8.10;99.60;;;;;;5029638;28;20425;-68
2022/04/08 09:33:20;;;;;;;0.40;0.32;;;8.20;99.20;;;;;;5022494;28;20469;-68
2022/04/08 09:35:48;;;;;;;4.05;1.23;;;8.20;99.00;;;;;;5026107;28;20038;-68
2022/04/08 09:38:27;;;;;;;2.97;1.20;;;8.20;99.20;;;;;;5018397;28;20042;-68
2022/04/08 09:41:01;;;;;;;4.68;1.17;;;8.30;99.20;;;;;;5019252;28;20047;-69
2022/04/08 09:43:32;;;;;;;4.07;1.00;;;8.30;99.30;;;;;;5028137;28;20033;-67
2022/04/08 09:46:19;;;;;;;1.42;0.68;;;8.20;98.90;;;;;;5029326;28;20041;-67
2022/04/08 09:48:46;;;;;;;6.18;1.05;;;8.30;99.00;;;;;;5029254;28;20056;-68
2022/04/08 09:51:23;;;;;;;1.45;0.70;;;8.30;99.10;;;;;;5029625;28;20116;-67
2022/04/08 09:54:04;;;;;;;1.40;0.68;;;8.30;99.20;;;;;;5029749;28;20464;-67
2022/04/08 09:56:30;;;;;;;9.45;1.20;;;8.30;99.30;;;;;;5029580;28;20034;-67
2022/04/08 09:58:59;;;;;;;4.65;1.33;;;8.30;99.10;;;;;;5031525;28;20064;-67
2022/04/08 10:01:28;;;;;;;1.60;0.90;;;8.40;99.20;;;;;;5032972;28;20053;-68
2022/04/08 10:03:53;;;;;;;0.55;0.45;;;8.30;98.80;;;;;;5033306;28;20029;-67
2022/04/08 10:06:19;;;;;;;4.35;1.45;;;8.40;98.90;;;;;;5033521;28;20052;-67
2022/04/08 10:08:47;;;;;;;4.25;1.10;;;8.40;99.00;;;;;;5020295;28;20049;-67
2022/04/08 10:11:23;;;;;;;0.75;0.75;;;8.40;99.10;;;;;;5033933;28;20053;-68
2022/04/08 10:14:08;;;;;;;4.75;0.82;;;8.40;98.90;;;;;;5023105;28;20042;-68
2022/04/08 10:16:38;;;;;;;1.30;1.02;;;8.50;98.80;;;;;;5026644;28;20034;-67
2022/04/08 10:19:07;;;;;;;3.13;1.25;;;8.50;99.10;;;;;;5030563;28;20446;-66
2022/04/08 10:21:39;;;;;;;6.00;1.33;;;8.60;99.20;;;;;;5020957;28;20030;-66
2022/04/08 10:24:13;;;;;;;2.22;1.17;;;8.70;98.70;;;;;;5022771;28;20056;-66
2022/04/08 10:27:14;;;;;;;3.05;1.02;;;8.70;99.00;;;;;;5027487;28;20041;-67
2022/04/08 10:29:40;;;;;;;0.85;0.60;;;8.70;98.90;;;;;;5029804;28;20083;-67
2022/04/08 10:32:15;;;;;;;3.70;1.08;;;8.80;98.80;;;;;;5033421;28;20038;-66
2022/04/08 10:34:41;;;;;;;2.35;1.15;;;8.80;98.70;;;;;;5019863;28;20052;-66
2022/04/08 10:37:21;;;;;;;6.50;0.93;;;8.80;99.00;;;;;;5019332;28;20042;-66
2022/04/08 10:40:04;;;;;;;3.10;0.82;;;8.80;98.70;;;;;;5033464;28;20033;-66
2022/04/08 10:42:33;;;;;;;5.63;1.42;;;8.80;98.70;;;;;;5034343;28;20026;-67
2022/04/08 10:44:58;;;;;;;3.42;0.80;;;8.90;99.00;;;;;;5027707;28;20053;-66
2022/04/08 10:47:24;;;;;;;10.88;1.55;;;8.90;98.80;;;;;;5017983;28;20037;-67
2022/04/08 10:50:03;;;;;;;3.35;1.10;;;9.00;98.60;;;;;;5032461;28;20029;-67
2022/04/08 10:52:38;;;;;;;11.80;1.50;;;9.10;98.50;;;;;;5014774;28;20030;-66
2022/04/08 10:55:09;;;;;;;7.82;1.50;;;9.20;98.40;;;;;;5025640;28;20041;-66
2022/04/08 10:57:45;;;;;;;8.35;1.88;;;9.20;97.80;;;;;;5013291;28;20036;-66
2022/04/08 11:00:18;;;;;;;6.88;1.60;;;9.30;97.60;;;;;;5014675;28;20058;-66
2022/04/08 11:02:46;;;;;;;9.75;1.63;;;9.40;98.00;;;;;;5024330;28;20049;-66
2022/04/08 11:05:13;;;;;;;5.80;1.40;;;9.40;98.00;;;;;;5012624;28;20044;-66
2022/04/08 11:07:45;;;;;;;6.88;1.40;;;9.40;98.00;;;;;;5021907;28;20030;-66
2022/04/08 11:10:21;;;;;;;2.30;0.60;;;9.40;97.00;;;;;;5028431;28;20030;-67
2022/04/08 11:12:52;;;;;;;4.97;1.70;;;9.50;97.70;;;;;;5013048;28;20081;-67
2022/04/08 11:15:27;;;;;;;8.23;1.65;;;9.50;97.30;;;;;;5031580;28;20030;-69
2022/04/08 11:17:53;;;;;;;3.10;0.68;;;9.50;97.20;;;;;;5031930;28;20041;-67
2022/04/08 11:20:23;;;;;;;5.68;1.23;;;9.60;97.70;;;;;;5028530;28;20416;-67
2022/04/08 11:22:52;;;;;;;2.63;1.15;;;9.60;97.70;;;;;;5029966;28;20043;-67
2022/04/08 11:25:29;;;;;;;5.10;0.90;;;9.70;97.70;;;;;;5031180;28;20030;-67
2022/04/08 11:28:04;;;;;;;9.40;1.70;;;9.70;97.60;;;;;;5031503;28;20049;-67
2022/04/08 11:30:33;;;;;;;5.32;1.58;;;9.70;97.40;;;;;;5031157;28;20057;-67
2022/04/08 11:32:59;;;;;;;3.13;1.23;;;9.70;96.40;;;;;;5031170;28;20041;-67
2022/04/08 11:35:31;;;;;;;4.10;0.82;;;9.80;97.40;;;;;;5031365;28;20056;-67
2022/04/08 11:37:57;;;;;;;10.80;1.70;;;9.70;97.00;;;;;;5031316;28;20034;-67
2022/04/08 11:40:23;;;;;;;0.52;0.40;;;9.80;96.60;;;;;;5030732;28;20431;-67
2022/04/08 11:42:49;;;;;;;4.05;1.45;;;9.80;97.00;;;;;;5031732;28;20041;-67
2022/04/08 11:45:18;;;;;;;6.53;1.38;;;9.80;95.60;;;;;;5031232;28;20033;-67
2022/04/08 11:47:46;;;;;;;3.72;0.73;;;9.90;96.80;;;;;;5030610;28;20489;-67
2022/04/08 11:50:13;;;;;;;5.95;0.93;;;9.90;96.90;;;;;;5027272;28;20071;-67
2022/04/08 11:52:38;;;;;;;7.45;1.38;;;10.00;96.90;;;;;;5030300;28;20393;-67
2022/04/08 11:55:06;;;;;;;5.75;1.63;;;10.00;96.90;;;;;;5030764;28;20036;-67
2022/04/08 11:57:34;;;;;;;4.80;1.10;;;10.10;97.30;;;;;;5031161;28;20029;-67
2022/04/08 12:00:04;;;;;;;2.15;1.20;;;10.10;96.90;;;;;;5029771;28;20071;-68
2022/04/08 12:02:38;;;;;;;9.30;1.30;;;10.10;97.10;;;;;;5030798;28;20052;-67
2022/04/08 12:05:05;;;;;;;6.95;1.35;;;10.20;97.00;;;;;;5031155;28;20485;-67
2022/04/08 12:07:31;;;;;;;1.63;0.63;;;10.20;97.10;;;;;;5030664;28;20488;-67
2022/04/08 12:10:00;;;;;;;5.70;0.85;;;10.20;97.40;;;;;;5030689;28;20041;-68
2022/04/08 12:12:28;;;;;;;6.65;1.40;;;10.20;96.20;;;;;;5029894;28;20087;-67
2022/04/08 12:14:54;;;;;;;6.82;1.88;;;10.30;96.40;;;;;;5029325;28;20604;-67
2022/04/08 12:17:21;;;;;;;3.95;1.02;;;10.30;96.60;;;;;;5030253;28;20037;-69
2022/04/08 12:19:52;;;;;;;9.15;2.05;;;10.40;97.50;;;;;;5029987;28;20435;-69
2022/04/08 12:22:19;;;;;;;6.93;1.50;;;10.40;97.10;;;;;;5029717;28;20037;-69
2022/04/08 12:24:48;;;;;;;5.70;1.25;;;10.40;96.20;;;;;;5030555;28;20152;-69
2022/04/08 12:27:25;;;;;;;1.52;0.65;;;10.50;97.00;;;;;;5023613;28;20084;-69
2022/04/08 12:30:08;;;;;;;13.57;1.20;;;10.40;97.40;;;;;;5027566;28;20389;-69
2022/04/08 12:32:44;;;;;;;11.65;1.38;;;10.50;97.70;;;;;;5028518;28;20077;-71
2022/04/08 12:35:12;;;;;;;3.58;0.85;;;10.60;97.40;;;;;;5027755;28;20464;-70
2022/04/08 12:37:38;;;;;;;3.20;1.08;;;10.60;97.60;;;;;;5028703;28;20025;-73
2022/04/08 12:40:06;;;;;;;1.83;0.85;;;10.70;97.00;;;;;;5029254;28;20064;-71
2022/04/08 12:42:37;;;;;;;2.22;0.80;;;10.70;97.30;;;;;;5029118;28;20045;-70
2022/04/08 12:45:10;;;;;;;4.38;0.98;;;10.70;97.60;;;;;;5028562;28;20031;-70
2022/04/08 12:47:36;;;;;;;6.65;0.70;;;10.80;96.60;;;;;;5028854;28;20052;-71
2022/04/08 12:50:03;;;;;;;4.57;1.15;;;10.90;95.90;;;;;;5028767;28;20030;-71
2022/04/08 12:52:28;;;;;;;3.83;1.27;;;10.90;95.60;;;;;;5028996;28;20030;-69
2022/04/08 12:54:54;;;;;;;2.15;1.05;;;11.00;94.70;;;;;;5028153;28;20154;-71
2022/04/08 12:57:22;;;;;;;1.70;0.90;;;11.00;94.30;;;;;;5026214;28;20053;-70